createdAt,value
2019-01-18T18:13:18.186Z,923.96
2019-01-18T18:14:49.801Z,924.14
2019-01-18T18:16:21.621Z,923.31
2019-01-18T18:22:15.030Z,924.69
2019-01-18T18:23:48.459Z,924.93
2019-01-18T18:26:28.423Z,924.95
2019-01-18T18:27:59.378Z,925.00
2019-01-18T18:29:31.191Z,925.10
2019-01-18T18:31:03.006Z,925.05
2019-01-18T18:32:34.819Z,924.92
2019-01-18T18:34:06.734Z,924.89
2019-01-18T18:35:38.448Z,924.85
2019-01-18T18:37:10.263Z,924.87
2019-01-18T18:38:42.078Z,924.85
2019-01-18T18:40:13.897Z,924.81
2019-01-18T18:41:45.707Z,924.53
2019-01-18T18:43:17.524Z,924.48
2019-01-18T18:44:49.336Z,924.65
2019-01-18T18:46:21.150Z,924.50
2019-01-18T18:47:53.500Z,924.48
2019-01-18T18:49:24.778Z,924.65
2019-01-18T18:50:56.594Z,924.53
2019-01-18T18:52:28.507Z,924.55
2019-01-18T18:54:00.221Z,924.49
2019-01-18T18:55:32.068Z,924.42
2019-01-18T18:57:04.746Z,924.29
2019-01-18T18:58:35.665Z,924.21
2019-01-18T19:00:07.480Z,924.10
2019-01-18T19:01:39.496Z,924.04
2019-01-18T19:03:11.108Z,924.07
2019-01-18T19:04:43.228Z,924.20
2019-01-18T19:06:14.738Z,924.38
2019-01-18T19:07:46.552Z,924.20
2019-01-18T19:09:18.367Z,924.19
2019-01-18T19:10:50.283Z,924.18
2019-01-18T19:12:21.994Z,924.19
2019-01-18T19:15:25.625Z,924.26
2019-01-18T19:16:57.442Z,924.28
2019-01-18T19:18:29.254Z,924.27
2019-01-18T19:20:01.070Z,924.31
2019-01-18T19:21:32.887Z,924.47
2019-01-18T19:23:04.700Z,924.36
2019-01-18T19:24:36.515Z,924.30
2019-01-18T19:26:08.330Z,924.27
2019-01-18T19:27:40.146Z,924.12
2019-01-18T19:29:12.061Z,924.23
2019-01-18T19:30:43.820Z,924.36
2019-01-18T19:32:15.592Z,924.36
2019-01-18T19:33:47.407Z,924.28
2019-01-18T19:35:19.223Z,924.12
2019-01-18T19:38:22.853Z,923.97
2019-01-18T19:42:09.607Z,923.86
2019-01-18T19:43:41.016Z,923.94
2019-01-18T19:45:12.830Z,923.94
2019-01-18T19:46:44.646Z,923.93
2019-01-18T19:48:16.562Z,923.81
2019-01-18T19:49:48.278Z,923.71
2019-01-18T19:51:20.091Z,923.76
2019-01-18T19:52:51.907Z,923.77
2019-01-18T19:54:23.721Z,923.76
2019-01-18T19:55:55.537Z,923.78
2019-01-18T19:57:27.392Z,923.78
2019-01-18T19:58:59.170Z,923.77
2019-01-18T20:00:30.988Z,923.73
2019-01-18T20:02:02.803Z,923.68
2019-01-18T20:03:34.822Z,923.70
2019-01-18T20:05:06.437Z,923.68
2019-01-18T20:06:38.352Z,923.67
2019-01-18T20:08:10.066Z,923.61
2019-01-18T20:09:41.881Z,923.52
2019-01-18T20:12:45.515Z,923.44
2019-01-18T20:14:17.338Z,923.48
2019-01-18T20:15:49.356Z,923.49
2019-01-18T20:17:20.978Z,923.52
2019-01-18T20:18:52.983Z,923.63
2019-01-18T20:20:24.600Z,923.72
2019-01-18T20:21:56.417Z,923.83
2019-01-18T20:23:28.230Z,923.85
2019-01-18T20:25:00.180Z,923.76
2019-01-18T20:26:31.866Z,923.69
2019-01-18T20:28:03.687Z,923.65
2019-01-18T20:29:35.500Z,923.64
2019-01-18T20:31:07.317Z,923.69
2019-01-18T20:32:39.135Z,923.73
2019-01-18T20:34:10.952Z,923.77
2019-01-18T20:35:42.974Z,923.79
2019-01-18T20:37:14.586Z,923.80
2019-01-18T20:38:46.404Z,923.82
2019-01-18T20:40:18.221Z,923.91
2019-01-18T20:43:21.957Z,924.11
2019-01-18T20:44:53.673Z,924.17
2019-01-18T20:46:25.694Z,924.22
2019-01-18T20:47:57.311Z,924.25
2019-01-18T20:49:29.128Z,924.30
2019-01-18T20:51:00.944Z,924.37
2019-01-18T20:52:32.760Z,924.41
2019-01-18T20:54:04.578Z,924.51
2019-01-18T20:55:36.395Z,924.58
2019-01-18T20:57:08.217Z,924.64
2019-01-18T20:58:40.030Z,924.71
2019-01-18T21:00:11.844Z,924.74
2019-01-18T21:01:43.765Z,924.84
2019-01-18T21:04:47.384Z,924.92
2019-01-18T21:06:19.112Z,924.99
2019-01-18T21:10:54.588Z,924.99
2019-01-18T21:12:26.383Z,925.01
2019-01-18T21:13:58.194Z,924.93
2019-01-18T21:15:30.030Z,924.94
2019-01-18T21:17:01.931Z,924.88
2019-01-18T21:18:33.642Z,924.85
2019-01-18T21:20:05.459Z,924.77
2019-01-18T21:21:37.277Z,924.73
2019-01-18T21:23:09.257Z,924.76
2019-01-18T21:24:40.925Z,924.72
2019-01-18T21:26:12.789Z,924.65
2019-01-18T21:27:44.572Z,924.58
2019-01-18T21:29:16.386Z,924.57
2019-01-18T21:30:48.693Z,924.51
2019-01-18T21:32:19.994Z,924.53
2019-01-18T21:33:51.809Z,924.54
2019-01-18T21:35:23.794Z,924.54
2019-01-18T21:36:55.445Z,924.53
2019-01-18T21:38:27.258Z,924.61
2019-01-18T21:39:59.090Z,924.65
2019-01-18T21:41:30.956Z,924.75
2019-01-18T21:43:02.789Z,924.76
2019-01-18T21:44:34.612Z,924.81
2019-01-18T21:46:06.370Z,924.84
2019-01-18T21:47:38.152Z,924.92
2019-01-18T21:49:09.969Z,924.95
2019-01-18T21:50:41.820Z,925.06
2019-01-18T21:52:13.600Z,925.15
2019-01-18T21:53:45.520Z,925.18
2019-01-18T21:55:17.231Z,925.21
2019-01-18T21:56:49.047Z,925.31
2019-01-18T21:58:20.864Z,925.42
2019-01-18T21:59:52.703Z,925.62
2019-01-18T22:01:24.516Z,925.77
2019-01-18T22:02:56.321Z,925.86
2019-01-18T22:04:28.131Z,925.94
2019-01-18T22:05:59.943Z,925.98
2019-01-18T22:07:31.759Z,926.03
2019-01-18T22:09:03.575Z,926.02
2019-01-18T22:10:35.391Z,925.98
2019-01-18T22:12:07.306Z,925.96
2019-01-18T22:13:39.023Z,925.92
2019-01-18T22:15:10.838Z,925.92
2019-01-18T22:16:42.654Z,925.93
2019-01-18T22:18:14.470Z,925.97
2019-01-18T22:19:46.295Z,926.09
2019-01-18T22:21:18.136Z,926.14
2019-01-18T22:22:49.918Z,926.23
2019-01-18T22:24:21.734Z,926.28
2019-01-18T22:25:53.550Z,926.27
2019-01-18T22:27:25.366Z,926.31
2019-01-18T22:28:57.182Z,926.34
2019-01-18T22:30:29.097Z,926.38
2019-01-18T22:32:00.818Z,926.49
2019-01-18T22:33:32.631Z,926.59
2019-01-18T22:35:04.455Z,926.59
2019-01-18T22:36:36.263Z,926.63
2019-01-18T22:38:08.077Z,926.58
2019-01-18T22:39:39.896Z,926.59
2019-01-18T22:41:11.719Z,926.55
2019-01-18T22:42:43.535Z,926.46
2019-01-18T22:44:15.342Z,926.44
2019-01-18T22:45:47.159Z,926.40
2019-01-18T22:47:18.979Z,926.25
2019-01-18T22:48:51.140Z,926.15
2019-01-18T22:50:22.606Z,926.03
2019-01-18T22:51:54.421Z,926.01
2019-01-18T22:53:26.237Z,926.06
2019-01-18T22:54:58.053Z,926.11
2019-01-18T22:56:29.872Z,926.18
2019-01-18T22:58:01.686Z,926.22
2019-01-18T22:59:33.500Z,926.26
2019-01-18T23:01:05.314Z,926.24
2019-01-18T23:02:37.132Z,926.22
2019-01-18T23:04:08.946Z,926.23
2019-01-18T23:05:40.763Z,926.25
2019-01-18T23:07:12.683Z,926.35
2019-01-18T23:08:44.395Z,926.41
2019-01-18T23:10:16.211Z,926.38
2019-01-18T23:11:48.026Z,926.34
2019-01-18T23:13:19.843Z,926.29
2019-01-18T23:14:51.667Z,926.25
2019-01-18T23:16:23.475Z,926.17
2019-01-18T23:17:55.290Z,926.12
2019-01-18T23:19:27.360Z,926.07
2019-01-18T23:20:58.929Z,926.03
2019-01-18T23:22:30.739Z,926.02
2019-01-18T23:24:02.556Z,925.96
2019-01-18T23:25:34.471Z,926.00
2019-01-18T23:27:06.187Z,925.97
2019-01-18T23:28:38.003Z,926.02
2019-01-18T23:30:09.818Z,925.96
2019-01-18T23:31:41.632Z,925.94
2019-01-18T23:33:13.449Z,925.90
2019-01-18T23:34:45.274Z,925.86
2019-01-18T23:36:17.081Z,925.80
2019-01-18T23:37:49.099Z,925.74
2019-01-18T23:39:20.714Z,925.70
2019-01-18T23:40:52.529Z,925.62
2019-01-18T23:42:25.342Z,925.57
2019-01-18T23:43:56.261Z,925.58
2019-01-18T23:45:27.976Z,925.61
2019-01-18T23:46:59.796Z,925.54
2019-01-18T23:48:31.609Z,925.58
2019-01-18T23:50:03.675Z,925.59
2019-01-18T23:51:35.241Z,925.56
2019-01-18T23:53:07.057Z,925.56
2019-01-18T23:54:38.873Z,925.55
2019-01-18T23:56:10.689Z,925.52
2019-01-18T23:57:42.505Z,925.45
2019-01-18T23:59:14.321Z,925.41
